createdAt,value
2018-10-06T00:01:09.218Z,85.80
2018-10-06T00:03:36.829Z,86.20
2018-10-06T00:06:04.589Z,86.53
2018-10-06T00:08:32.232Z,85.97
2018-10-06T00:10:59.860Z,86.39
2018-10-06T00:13:27.472Z,86.48
2018-10-06T00:15:55.109Z,86.18
2018-10-06T00:18:22.744Z,86.41
2018-10-06T00:20:50.429Z,86.54
2018-10-06T00:23:18.117Z,85.82
2018-10-06T00:25:45.732Z,86.09
2018-10-06T00:28:13.410Z,86.25
2018-10-06T00:30:41.021Z,86.48
2018-10-06T00:33:08.673Z,86.29
2018-10-06T00:35:36.380Z,86.46
2018-10-06T00:38:04.006Z,85.97
2018-10-06T00:40:31.628Z,87.14
2018-10-06T00:42:59.276Z,86.74
2018-10-06T00:45:26.918Z,87.50
2018-10-06T00:47:54.552Z,87.56
2018-10-06T00:50:22.941Z,87.79
2018-10-06T00:52:50.605Z,88.16
2018-10-06T00:55:18.365Z,88.17
2018-10-06T00:57:45.964Z,88.12
2018-10-06T01:00:13.638Z,88.19
2018-10-06T01:02:41.257Z,88.30
2018-10-06T01:05:09.308Z,88.21
2018-10-06T01:07:38.922Z,88.99
2018-10-06T01:10:06.595Z,88.54
2018-10-06T01:12:34.216Z,89.12
2018-10-06T01:15:01.862Z,89.04
2018-10-06T01:17:29.537Z,88.54
2018-10-06T01:19:57.153Z,88.52
2018-10-06T01:22:26.861Z,88.68
2018-10-06T01:24:54.481Z,88.82
2018-10-06T01:27:22.093Z,88.93
2018-10-06T01:29:49.769Z,88.57
2018-10-06T01:32:17.799Z,88.94
2018-10-06T01:34:45.629Z,88.74
2018-10-06T01:37:13.243Z,89.31
2018-10-06T01:39:40.897Z,89.67
2018-10-06T01:42:08.553Z,89.40
2018-10-06T01:44:36.205Z,90.06
2018-10-06T01:47:03.854Z,89.84
2018-10-06T01:49:31.470Z,89.57
2018-10-06T01:51:59.138Z,88.85
2018-10-06T01:54:26.783Z,89.03
2018-10-06T01:56:54.425Z,89.44
2018-10-06T01:59:22.089Z,89.61
2018-10-06T02:01:49.717Z,89.36
2018-10-06T02:04:20.362Z,89.88
2018-10-06T02:06:48.016Z,90.32
2018-10-06T02:09:15.666Z,89.88
2018-10-06T02:11:43.318Z,89.59
2018-10-06T02:14:10.933Z,89.72
2018-10-06T02:16:38.539Z,89.32
2018-10-06T02:19:06.227Z,88.90
2018-10-06T02:21:33.869Z,88.68
2018-10-06T02:24:01.498Z,88.66
2018-10-06T02:26:29.126Z,87.75
2018-10-06T02:28:56.778Z,87.33
2018-10-06T02:31:24.473Z,87.00
2018-10-06T02:33:52.105Z,86.37
2018-10-06T02:36:19.738Z,86.25
2018-10-06T02:38:47.382Z,86.19
2018-10-06T02:41:15.061Z,86.04
2018-10-06T02:43:42.708Z,85.69
2018-10-06T02:46:10.389Z,85.76
2018-10-06T02:48:38.018Z,85.74
2018-10-06T02:51:05.698Z,85.38
2018-10-06T02:53:33.344Z,85.35
2018-10-06T02:56:00.965Z,85.02
2018-10-06T02:58:28.621Z,84.80
2018-10-06T03:00:56.298Z,84.44
2018-10-06T03:03:23.925Z,84.76
2018-10-06T03:05:51.564Z,84.22
2018-10-06T03:08:19.242Z,84.24
2018-10-06T03:10:46.865Z,84.42
2018-10-06T03:13:14.507Z,84.06
2018-10-06T03:15:42.169Z,84.85
2018-10-06T03:18:09.831Z,84.45
2018-10-06T03:20:37.448Z,84.24
2018-10-06T03:23:05.159Z,84.23
2018-10-06T03:25:32.820Z,84.78
2018-10-06T03:28:00.521Z,84.49
2018-10-06T03:30:28.173Z,84.67
2018-10-06T03:32:55.792Z,84.09
2018-10-06T03:35:23.498Z,84.48
2018-10-06T03:37:51.318Z,84.46
2018-10-06T03:40:19.093Z,83.85
2018-10-06T03:42:46.721Z,83.72
2018-10-06T03:45:14.685Z,83.20
2018-10-06T03:47:42.332Z,83.16
2018-10-06T03:50:09.944Z,83.36
2018-10-06T03:52:37.584Z,83.57
2018-10-06T03:55:05.281Z,83.86
2018-10-06T03:57:32.941Z,84.30
2018-10-06T04:00:00.570Z,84.10
2018-10-06T04:02:28.231Z,84.14
2018-10-06T04:04:55.868Z,84.24
2018-10-06T04:07:23.846Z,84.05
2018-10-06T04:09:51.484Z,84.18
2018-10-06T04:12:19.114Z,84.57
2018-10-06T04:14:46.820Z,85.42
2018-10-06T04:17:14.445Z,85.20
2018-10-06T04:19:42.145Z,85.89
2018-10-06T04:22:09.776Z,85.72
2018-10-06T04:24:37.457Z,85.90
2018-10-06T04:27:05.157Z,85.77
2018-10-06T04:29:32.776Z,85.57
2018-10-06T04:32:00.432Z,86.10
2018-10-06T04:34:28.075Z,86.61
2018-10-06T04:36:55.713Z,85.81
2018-10-06T04:39:23.317Z,85.91
2018-10-06T04:41:50.977Z,86.61
2018-10-06T04:44:18.603Z,86.71
2018-10-06T04:46:46.292Z,86.84
2018-10-06T04:49:13.937Z,86.63
2018-10-06T04:51:41.582Z,86.84
2018-10-06T04:54:09.221Z,87.76
2018-10-06T04:56:36.960Z,87.07
2018-10-06T04:59:04.600Z,86.95
2018-10-06T05:01:32.267Z,87.33
2018-10-06T05:03:59.889Z,87.17
2018-10-06T05:06:27.520Z,87.22
2018-10-06T05:08:55.173Z,87.23
2018-10-06T05:11:22.826Z,87.23
2018-10-06T05:13:50.477Z,86.98
2018-10-06T05:16:18.110Z,87.07
2018-10-06T05:18:45.753Z,85.76
2018-10-06T05:21:13.394Z,85.39
2018-10-06T05:23:41.151Z,85.48
2018-10-06T05:26:08.717Z,84.52
2018-10-06T05:28:36.339Z,84.13
2018-10-06T05:31:03.967Z,84.26
2018-10-06T05:33:31.684Z,84.03
2018-10-06T05:35:59.332Z,84.00
2018-10-06T05:38:26.989Z,83.40
2018-10-06T05:40:54.714Z,82.91
2018-10-06T05:43:22.433Z,83.17
2018-10-06T05:45:50.137Z,83.04
2018-10-06T05:48:17.827Z,82.88
2018-10-06T05:50:45.471Z,82.81
2018-10-06T05:53:13.134Z,81.67
2018-10-06T05:55:40.818Z,81.21
2018-10-06T05:58:08.441Z,81.49
2018-10-06T06:00:36.078Z,81.85
2018-10-06T06:03:03.704Z,81.17
2018-10-06T06:05:31.353Z,79.24
2018-10-06T06:07:58.993Z,79.13
2018-10-06T06:10:26.679Z,79.53
2018-10-06T06:12:54.342Z,79.51
2018-10-06T06:15:22.024Z,79.71
2018-10-06T06:17:49.650Z,79.16
2018-10-06T06:20:17.293Z,78.52
2018-10-06T06:22:44.982Z,79.80
2018-10-06T06:25:12.610Z,78.56
2018-10-06T06:27:40.261Z,77.28
2018-10-06T06:30:07.925Z,77.60
2018-10-06T06:32:35.543Z,77.47
2018-10-06T06:35:03.215Z,75.12
2018-10-06T06:37:30.953Z,75.08
2018-10-06T06:39:58.621Z,76.85
2018-10-06T06:42:26.248Z,76.03
2018-10-06T06:44:54.033Z,76.38
2018-10-06T06:47:21.660Z,76.60
2018-10-06T06:49:49.268Z,75.25
2018-10-06T06:52:16.929Z,74.87
2018-10-06T06:54:44.558Z,75.68
2018-10-06T06:57:12.161Z,76.12
2018-10-06T06:59:39.832Z,74.99
2018-10-06T07:02:07.493Z,73.86
2018-10-06T07:04:35.113Z,74.00
2018-10-06T07:07:02.821Z,73.53
2018-10-06T07:09:30.433Z,73.63
2018-10-06T07:11:58.066Z,73.19
2018-10-06T07:14:25.715Z,73.35
2018-10-06T07:16:53.342Z,72.12
2018-10-06T07:19:20.955Z,71.27
2018-10-06T07:21:48.649Z,71.19
2018-10-06T07:24:16.309Z,67.89
2018-10-06T07:26:43.972Z,68.56
2018-10-06T07:29:11.585Z,65.83
2018-10-06T07:31:39.246Z,68.82
2018-10-06T07:34:06.968Z,67.94
2018-10-06T07:36:34.598Z,67.67
2018-10-06T07:39:02.388Z,67.58
2018-10-06T07:41:30.000Z,63.69
2018-10-06T07:43:57.630Z,66.64
2018-10-06T07:46:25.358Z,64.89
2018-10-06T07:48:53.565Z,66.29
2018-10-06T07:51:21.228Z,62.45
2018-10-06T07:53:50.845Z,65.54
2018-10-06T07:56:19.749Z,62.30
2018-10-06T07:58:47.430Z,59.17
2018-10-06T08:01:15.105Z,62.82
2018-10-06T08:03:42.757Z,63.00
2018-10-06T08:06:10.426Z,62.86
2018-10-06T08:08:38.054Z,58.48
2018-10-06T08:11:05.677Z,58.16
2018-10-06T08:13:34.186Z,61.39
2018-10-06T08:16:01.841Z,60.88
2018-10-06T08:18:29.463Z,60.05
2018-10-06T08:20:58.455Z,58.79
2018-10-06T08:23:26.181Z,59.45
2018-10-06T08:25:53.852Z,60.39
2018-10-06T08:28:21.477Z,60.05
2018-10-06T08:30:49.154Z,59.44
2018-10-06T08:33:16.851Z,59.69
2018-10-06T08:35:44.579Z,59.94
2018-10-06T08:38:12.273Z,59.61
2018-10-06T08:40:39.898Z,58.48
2018-10-06T08:43:07.673Z,56.63
2018-10-06T08:45:35.337Z,57.93
2018-10-06T08:48:02.965Z,57.72
2018-10-06T08:50:30.605Z,57.33
2018-10-06T08:52:58.453Z,57.28
2018-10-06T08:55:26.105Z,57.96
2018-10-06T08:57:53.953Z,56.57
2018-10-06T09:00:21.582Z,55.02
2018-10-06T09:02:49.231Z,54.59
2018-10-06T09:05:16.849Z,53.35
2018-10-06T09:07:44.605Z,56.34
2018-10-06T09:10:12.704Z,52.04
2018-10-06T09:12:40.572Z,53.23
2018-10-06T09:15:08.545Z,53.57
2018-10-06T09:17:36.695Z,53.80
2018-10-06T09:20:04.445Z,54.29
2018-10-06T09:22:32.084Z,52.79
2018-10-06T09:24:59.833Z,52.96
2018-10-06T09:27:27.453Z,53.72
2018-10-06T09:29:55.056Z,54.29
2018-10-06T09:32:22.696Z,52.68
2018-10-06T09:34:50.345Z,53.59
2018-10-06T09:37:17.985Z,53.62
2018-10-06T09:39:45.622Z,49.05
2018-10-06T09:42:13.446Z,53.77
2018-10-06T09:44:40.997Z,52.93
2018-10-06T09:47:08.637Z,48.95
2018-10-06T09:49:36.337Z,53.82
2018-10-06T09:52:04.070Z,53.01
2018-10-06T09:54:31.773Z,49.23
2018-10-06T09:57:01.112Z,52.70
2018-10-06T09:59:28.853Z,51.71
2018-10-06T10:02:02.058Z,52.31
2018-10-06T10:04:29.841Z,52.70
2018-10-06T10:06:57.460Z,52.40
2018-10-06T10:09:25.086Z,51.66
2018-10-06T10:11:57.464Z,50.87
2018-10-06T10:14:25.138Z,50.02
2018-10-06T10:16:52.822Z,48.75
2018-10-06T10:19:20.446Z,46.12
2018-10-06T10:21:49.056Z,48.43
2018-10-06T10:24:16.645Z,50.24
2018-10-06T10:26:44.266Z,48.72
2018-10-06T10:29:11.926Z,47.99
2018-10-06T10:31:39.585Z,50.37
2018-10-06T10:34:08.159Z,50.28
2018-10-06T10:36:36.365Z,50.05
2018-10-06T10:39:09.141Z,51.25
2018-10-06T10:41:37.857Z,50.90
2018-10-06T10:44:05.725Z,49.60
2018-10-06T10:46:33.285Z,51.67
2018-10-06T10:49:02.525Z,52.51
2018-10-06T10:51:30.290Z,51.91
2018-10-06T10:53:57.912Z,49.74
2018-10-06T10:56:25.550Z,50.49
2018-10-06T10:58:56.131Z,51.50
2018-10-06T11:01:25.992Z,50.96
2018-10-06T11:03:55.608Z,50.30
2018-10-06T11:06:23.188Z,49.10
2018-10-06T11:08:50.866Z,50.79
2018-10-06T11:11:19.224Z,49.98
2018-10-06T11:13:47.778Z,50.33
2018-10-06T11:16:15.413Z,49.64
2018-10-06T11:18:43.061Z,49.56
2018-10-06T11:21:10.717Z,49.74
2018-10-06T11:23:38.363Z,49.46
2018-10-06T11:26:06.024Z,51.01
2018-10-06T11:28:33.697Z,50.24
2018-10-06T11:31:01.305Z,51.91
2018-10-06T11:33:28.928Z,51.73
2018-10-06T11:35:56.572Z,51.65
2018-10-06T11:38:24.200Z,51.06
2018-10-06T11:40:51.880Z,49.03
2018-10-06T11:43:19.519Z,50.89
2018-10-06T11:45:47.136Z,50.57
2018-10-06T11:48:14.787Z,50.40
2018-10-06T11:50:42.401Z,49.05
2018-10-06T11:53:10.015Z,49.17
2018-10-06T11:55:37.685Z,48.89
2018-10-06T11:58:05.345Z,49.01
2018-10-06T12:00:33.006Z,50.22
2018-10-06T12:03:00.649Z,49.95
2018-10-06T12:05:28.289Z,50.40
2018-10-06T12:07:55.974Z,49.34
2018-10-06T12:10:23.618Z,48.76
2018-10-06T12:12:51.217Z,51.11
2018-10-06T12:15:18.860Z,51.09
2018-10-06T12:17:46.525Z,51.02
2018-10-06T12:20:14.189Z,51.59
2018-10-06T12:22:41.811Z,49.51
2018-10-06T12:25:09.424Z,51.30
2018-10-06T12:27:37.081Z,49.27
2018-10-06T12:30:04.953Z,52.48
2018-10-06T12:32:32.618Z,51.70
2018-10-06T12:35:00.297Z,52.18
2018-10-06T12:37:27.988Z,51.57
2018-10-06T12:39:55.648Z,50.24
2018-10-06T12:42:23.274Z,51.22
2018-10-06T12:44:50.954Z,49.75
2018-10-06T12:47:18.562Z,50.32
2018-10-06T12:49:46.248Z,51.22
2018-10-06T12:52:13.883Z,49.79
2018-10-06T12:54:41.509Z,50.72
2018-10-06T12:57:09.181Z,51.42
2018-10-06T12:59:36.880Z,50.12
2018-10-06T13:02:04.507Z,50.34
2018-10-06T13:04:32.333Z,50.64
2018-10-06T13:07:00.091Z,51.75
2018-10-06T13:09:27.729Z,49.17
2018-10-06T13:11:55.403Z,50.65
2018-10-06T13:14:23.041Z,50.16
2018-10-06T13:16:50.660Z,48.92
2018-10-06T13:19:18.290Z,49.99
2018-10-06T13:21:45.981Z,50.94
2018-10-06T13:24:13.613Z,50.51
2018-10-06T13:26:41.280Z,50.00
2018-10-06T13:29:08.921Z,49.50
2018-10-06T13:31:36.568Z,49.93
2018-10-06T13:34:04.238Z,48.29
2018-10-06T13:36:31.898Z,48.27
2018-10-06T13:38:59.569Z,47.24
2018-10-06T13:41:27.237Z,47.96
2018-10-06T13:43:54.861Z,49.83
2018-10-06T13:46:22.600Z,51.17
2018-10-06T13:48:50.213Z,50.67
2018-10-06T13:51:18.777Z,51.26
2018-10-06T13:53:46.509Z,49.90
2018-10-06T13:56:14.203Z,50.56
2018-10-06T13:58:42.014Z,51.02
2018-10-06T14:01:09.698Z,52.60
2018-10-06T14:03:37.330Z,52.27
2018-10-06T14:06:04.982Z,53.83
2018-10-06T14:08:32.765Z,52.55
2018-10-06T14:11:00.483Z,53.00
2018-10-06T14:13:28.092Z,51.74
2018-10-06T14:15:55.749Z,50.65
2018-10-06T14:18:23.377Z,52.09
2018-10-06T14:20:51.078Z,50.91
2018-10-06T14:23:18.821Z,52.11
2018-10-06T14:25:46.447Z,51.00
2018-10-06T14:28:14.075Z,52.25
2018-10-06T14:30:41.689Z,51.84
2018-10-06T14:33:09.390Z,52.34
2018-10-06T14:35:37.013Z,52.90
2018-10-06T14:38:04.648Z,53.41
2018-10-06T14:40:32.413Z,54.20
2018-10-06T14:43:00.057Z,54.09
2018-10-06T14:45:27.724Z,55.00
2018-10-06T14:47:55.351Z,55.63
2018-10-06T14:50:22.971Z,55.77
2018-10-06T14:52:50.655Z,55.39
2018-10-06T14:55:18.285Z,55.28
2018-10-06T14:57:45.893Z,55.18
2018-10-06T15:00:13.517Z,55.68
2018-10-06T15:02:41.177Z,55.76
2018-10-06T15:05:08.825Z,56.80
2018-10-06T15:07:36.656Z,55.23
2018-10-06T15:10:04.614Z,56.21
2018-10-06T15:12:32.288Z,55.57
2018-10-06T15:14:59.905Z,55.54
2018-10-06T15:17:27.528Z,55.93
2018-10-06T15:19:55.196Z,56.71
2018-10-06T15:22:22.818Z,57.68
2018-10-06T15:24:50.524Z,57.08
2018-10-06T15:27:18.772Z,58.25
2018-10-06T15:29:46.389Z,58.78
2018-10-06T15:32:14.057Z,58.34
2018-10-06T15:34:41.689Z,58.52
2018-10-06T15:37:09.330Z,57.69
2018-10-06T15:39:36.967Z,58.43
2018-10-06T15:42:04.669Z,58.60
2018-10-06T15:44:32.280Z,58.71
2018-10-06T15:46:59.896Z,58.94
2018-10-06T15:49:27.831Z,59.13
2018-10-06T15:51:55.477Z,59.66
2018-10-06T15:54:23.169Z,60.09
2018-10-06T15:56:51.038Z,60.84
2018-10-06T15:59:18.561Z,61.51
2018-10-06T16:01:46.201Z,61.67
2018-10-06T16:04:13.839Z,62.07
2018-10-06T16:06:41.675Z,62.19
2018-10-06T16:09:09.441Z,62.51
2018-10-06T16:11:37.263Z,63.02
2018-10-06T16:14:05.005Z,62.78
2018-10-06T16:16:32.805Z,63.21
2018-10-06T16:19:00.551Z,63.52
2018-10-06T16:21:28.250Z,64.21
2018-10-06T16:23:55.909Z,64.70
2018-10-06T16:26:23.557Z,65.03
2018-10-06T16:28:51.192Z,65.40
2018-10-06T16:31:18.850Z,65.15
2018-10-06T16:33:46.509Z,65.79
2018-10-06T16:36:14.125Z,66.09
2018-10-06T16:38:41.733Z,66.35
2018-10-06T16:41:09.397Z,66.69
2018-10-06T16:43:37.009Z,66.96
2018-10-06T16:46:04.729Z,66.79
2018-10-06T16:48:32.410Z,67.11
2018-10-06T16:51:00.093Z,67.36
2018-10-06T16:53:27.711Z,68.00
2018-10-06T16:55:55.338Z,67.87
2018-10-06T16:58:23.002Z,68.39
2018-10-06T17:00:50.666Z,69.38
2018-10-06T17:03:18.380Z,69.10
2018-10-06T17:05:46.024Z,69.49
2018-10-06T17:08:13.688Z,70.27
2018-10-06T17:10:41.420Z,70.32
2018-10-06T17:13:09.679Z,70.16
2018-10-06T17:15:38.227Z,71.76
2018-10-06T17:18:06.207Z,70.97
2018-10-06T17:20:34.901Z,71.57
2018-10-06T17:23:02.871Z,71.70
2018-10-06T17:25:30.539Z,71.31
2018-10-06T17:27:58.154Z,71.50
2018-10-06T17:30:25.869Z,71.52
2018-10-06T17:32:53.489Z,73.13
2018-10-06T17:35:21.165Z,72.90
2018-10-06T17:37:48.818Z,73.00
2018-10-06T17:40:16.502Z,73.10
2018-10-06T17:42:44.250Z,73.27
2018-10-06T17:45:11.913Z,73.48
2018-10-06T17:47:39.900Z,73.42
2018-10-06T17:50:07.791Z,73.33
2018-10-06T17:52:35.375Z,73.99
2018-10-06T17:55:03.088Z,73.45
2018-10-06T17:57:30.869Z,74.09
2018-10-06T17:59:58.513Z,76.31
2018-10-06T18:02:26.181Z,75.44
2018-10-06T18:04:54.078Z,76.16
2018-10-06T18:07:21.873Z,76.85
2018-10-06T18:09:49.594Z,78.83
2018-10-06T18:12:17.261Z,77.83
2018-10-06T18:14:44.967Z,77.57
2018-10-06T18:17:12.581Z,76.82
2018-10-06T18:19:40.195Z,77.27
2018-10-06T18:22:07.876Z,77.77
2018-10-06T18:24:35.557Z,77.69
2018-10-06T18:27:03.189Z,78.30
2018-10-06T18:29:30.927Z,77.66
2018-10-06T18:31:58.714Z,78.15
2018-10-06T18:34:26.345Z,77.78
2018-10-06T18:36:54.150Z,78.25
2018-10-06T18:39:21.714Z,78.67
2018-10-06T18:41:49.412Z,78.04
2018-10-06T18:44:17.048Z,77.44
2018-10-06T18:46:44.700Z,77.71
2018-10-06T18:49:12.474Z,77.84
2018-10-06T18:51:40.194Z,77.85
2018-10-06T18:54:07.869Z,77.51
2018-10-06T18:56:40.060Z,77.16
2018-10-06T18:59:07.781Z,77.90
2018-10-06T19:01:35.470Z,79.02
2018-10-06T19:04:03.353Z,79.58
2018-10-06T19:06:30.925Z,78.82
2018-10-06T19:08:58.770Z,79.15
2018-10-06T19:11:26.385Z,79.72
2018-10-06T19:13:54.865Z,80.20
2018-10-06T19:16:22.651Z,80.04
2018-10-06T19:18:50.327Z,80.52
2018-10-06T19:21:18.053Z,80.62
2018-10-06T19:23:47.188Z,80.33
2018-10-06T19:26:21.606Z,80.67
2018-10-06T19:28:49.254Z,80.53
2018-10-06T19:31:17.311Z,79.50
2018-10-06T19:33:45.464Z,80.21
2018-10-06T19:36:13.181Z,80.88
2018-10-06T19:38:43.352Z,80.65
2018-10-06T19:41:11.006Z,81.17
2018-10-06T19:43:38.709Z,82.34
2018-10-06T19:46:08.066Z,81.97
2018-10-06T19:48:35.913Z,83.06
2018-10-06T19:51:03.566Z,83.27
2018-10-06T19:53:31.204Z,82.16
2018-10-06T19:55:58.889Z,82.65
2018-10-06T19:58:26.613Z,83.94
2018-10-06T20:00:54.392Z,83.83
2018-10-06T20:03:22.085Z,83.76
2018-10-06T20:05:49.936Z,85.15
2018-10-06T20:08:17.865Z,83.95
2018-10-06T20:10:45.550Z,83.29
2018-10-06T20:13:13.221Z,84.41
2018-10-06T20:15:40.845Z,84.81
2018-10-06T20:18:08.469Z,84.42
2018-10-06T20:20:36.160Z,84.69
2018-10-06T20:23:03.824Z,85.56
2018-10-06T20:25:31.485Z,85.00
2018-10-06T20:27:59.146Z,84.87
2018-10-06T20:30:27.256Z,85.15
2018-10-06T20:32:55.002Z,85.53
2018-10-06T20:35:22.758Z,85.01
2018-10-06T20:37:50.786Z,85.34
2018-10-06T20:40:18.466Z,85.85
2018-10-06T20:42:46.075Z,85.00
2018-10-06T20:45:13.693Z,85.13
2018-10-06T20:47:41.355Z,84.46
2018-10-06T20:50:09.017Z,83.37
2018-10-06T20:52:36.693Z,83.72
2018-10-06T20:55:04.354Z,85.23
2018-10-06T20:57:31.964Z,85.42
2018-10-06T20:59:59.673Z,86.10
2018-10-06T21:02:27.322Z,85.53
2018-10-06T21:04:55.024Z,85.57
2018-10-06T21:07:22.717Z,85.74
2018-10-06T21:09:50.322Z,85.55
2018-10-06T21:12:17.961Z,86.19
2018-10-06T21:14:45.605Z,86.05
2018-10-06T21:17:13.216Z,85.73
2018-10-06T21:19:40.833Z,85.84
2018-10-06T21:22:08.542Z,85.91
2018-10-06T21:24:36.189Z,85.30
2018-10-06T21:27:03.804Z,85.47
2018-10-06T21:29:31.592Z,85.46
2018-10-06T21:31:59.124Z,85.73
2018-10-06T21:34:26.758Z,85.53
2018-10-06T21:36:54.397Z,85.64
2018-10-06T21:39:22.034Z,85.64
2018-10-06T21:41:49.745Z,85.81
2018-10-06T21:44:17.353Z,85.35
2018-10-06T21:46:44.974Z,84.29
2018-10-06T21:49:12.644Z,84.61
2018-10-06T21:51:40.269Z,85.95
2018-10-06T21:54:07.907Z,85.87
2018-10-06T21:56:35.540Z,85.26
2018-10-06T21:59:03.188Z,85.68
2018-10-06T22:01:30.905Z,85.27
2018-10-06T22:03:58.561Z,85.26
2018-10-06T22:06:26.213Z,84.68
2018-10-06T22:08:54.662Z,85.84
2018-10-06T22:11:22.572Z,86.22
2018-10-06T22:13:50.192Z,85.85
2018-10-06T22:16:17.802Z,85.84
2018-10-06T22:18:45.455Z,85.83
2018-10-06T22:21:13.106Z,86.53
2018-10-06T22:23:40.773Z,85.89
2018-10-06T22:26:08.449Z,86.68
2018-10-06T22:28:36.060Z,86.70
2018-10-06T22:31:03.696Z,86.88
2018-10-06T22:33:31.361Z,86.63
2018-10-06T22:35:59.005Z,86.75
2018-10-06T22:38:26.624Z,86.62
2018-10-06T22:40:54.302Z,86.54
2018-10-06T22:43:21.909Z,86.97
2018-10-06T22:45:49.593Z,86.84
2018-10-06T22:48:17.213Z,87.09
2018-10-06T22:50:44.856Z,86.61
2018-10-06T22:53:12.520Z,85.77
2018-10-06T22:55:40.240Z,86.79
2018-10-06T22:58:07.914Z,87.87
2018-10-06T23:00:35.569Z,88.69
2018-10-06T23:03:03.212Z,88.78
2018-10-06T23:05:30.883Z,88.29
2018-10-06T23:07:58.521Z,88.43
2018-10-06T23:10:26.188Z,88.89
2018-10-06T23:12:53.813Z,88.49
2018-10-06T23:15:21.437Z,88.49
2018-10-06T23:17:49.095Z,88.39
2018-10-06T23:20:16.773Z,88.74
2018-10-06T23:22:44.445Z,88.95
2018-10-06T23:25:12.079Z,88.43
2018-10-06T23:27:39.768Z,88.67
2018-10-06T23:30:07.472Z,88.79
2018-10-06T23:32:35.153Z,88.73
2018-10-06T23:35:02.836Z,88.22
2018-10-06T23:37:30.502Z,88.48
2018-10-06T23:39:58.393Z,88.38
2018-10-06T23:42:26.026Z,88.47
2018-10-06T23:44:53.682Z,89.04
2018-10-06T23:47:21.345Z,88.50
2018-10-06T23:49:49.013Z,88.29
2018-10-06T23:52:16.633Z,88.64
2018-10-06T23:54:44.259Z,88.35
2018-10-06T23:57:11.925Z,88.73
2018-10-06T23:59:39.578Z,88.50
